Time;durP1;ratioP1;P1;durP2;ratioP2;P2;SDS_P1;SDS_P2;PMS_P1;PMS_P2;Temp;Humidity;BMP_temperature;BMP_pressure;BME280_temperature;BME280_humidity;BME280_pressure;Samples;Min_cycle;Max_cycle;Signal;HPM_P1;HPM_P2
2023/12/02 00:02:35;;;;;;;8.82;5.35;;;;;;;-7.32;89.97;99686.25;10426136;28;20052;-65
2023/12/02 00:07:38;;;;;;;9.38;5.82;;;;;;;-7.32;89.99;99687.09;10401835;28;20042;-67
2023/12/02 00:12:40;;;;;;;8.95;5.15;;;;;;;-7.28;90.74;99692.88;10424549;28;20421;-66
2023/12/02 00:17:43;;;;;;;7.75;5.80;;;;;;;-7.26;89.96;99696.19;10439649;28;20408;-65
2023/12/02 00:22:45;;;;;;;8.27;5.22;;;;;;;-7.19;89.99;99702.41;10428617;28;20042;-65
2023/12/02 00:27:47;;;;;;;8.13;5.80;;;;;;;-7.11;90.36;99718.28;10434547;28;20041;-66
2023/12/02 00:32:50;;;;;;;10.23;5.75;;;;;;;-7.07;89.96;99714.22;10443247;28;20052;-66
2023/12/02 00:37:52;;;;;;;7.70;5.18;;;;;;;-7.10;89.81;99716.44;10445191;28;20048;-66
2023/12/02 00:42:54;;;;;;;8.55;6.22;;;;;;;-7.13;89.48;99717.63;10403647;28;20058;-65
2023/12/02 00:47:56;;;;;;;9.95;5.93;;;;;;;-7.11;89.89;99715.63;10418721;28;20055;-65
2023/12/02 00:52:58;;;;;;;11.77;6.57;;;;;;;-7.13;90.38;99714.94;10438833;28;20029;-66
2023/12/02 00:58:01;;;;;;;12.40;7.90;;;;;;;-7.39;90.83;99728.84;10440282;28;20042;-65
2023/12/02 01:03:05;;;;;;;11.43;7.10;;;;;;;-7.45;91.72;99731.44;10440317;28;20048;-65
2023/12/02 01:08:07;;;;;;;15.55;9.00;;;;;;;-7.50;92.43;99739.13;10439353;28;20029;-66
2023/12/02 01:13:10;;;;;;;15.63;8.70;;;;;;;-7.65;93.29;99737.31;10440849;28;20045;-65
2023/12/02 01:18:12;;;;;;;17.38;8.27;;;;;;;-7.52;93.83;99742.00;10440604;28;20042;-65
2023/12/02 01:23:14;;;;;;;16.25;9.52;;;;;;;-7.60;94.26;99750.94;10438850;28;20575;-65
2023/12/02 01:28:17;;;;;;;18.40;9.30;;;;;;;-7.59;94.94;99757.06;10445392;28;20033;-66
2023/12/02 01:33:19;;;;;;;20.88;9.43;;;;;;;-7.43;94.97;99759.53;10427521;28;20042;-66
2023/12/02 01:38:22;;;;;;;19.02;8.95;;;;;;;-7.41;95.86;99762.00;10431635;28;20044;-66
2023/12/02 01:43:26;;;;;;;19.30;9.65;;;;;;;-7.32;95.31;99772.38;10436400;28;20441;-66
2023/12/02 01:48:32;;;;;;;22.00;10.48;;;;;;;-7.44;96.07;99770.38;10434565;28;20422;-66
2023/12/02 01:53:35;;;;;;;24.45;10.50;;;;;;;-7.48;96.03;99777.06;10431699;28;20045;-66
2023/12/02 01:58:37;;;;;;;22.83;9.95;;;;;;;-7.48;95.49;99774.41;10429749;28;20037;-65
2023/12/02 02:03:41;;;;;;;17.30;8.93;;;;;;;-7.56;95.58;99770.03;10415394;28;20049;-65
2023/12/02 02:08:44;;;;;;;19.13;9.35;;;;;;;-7.64;96.11;99764.78;10443745;28;20037;-65
2023/12/02 02:13:47;;;;;;;26.00;10.38;;;;;;;-7.66;96.27;99769.47;10433596;28;20033;-69
2023/12/02 02:18:50;;;;;;;20.75;8.88;;;;;;;-7.72;96.18;99780.88;10435227;28;20045;-66
2023/12/02 02:23:52;;;;;;;22.70;10.50;;;;;;;-7.73;96.54;99776.56;10432005;28;20553;-65
2023/12/02 02:28:55;;;;;;;22.02;9.48;;;;;;;-7.57;96.63;99778.19;10444439;28;20045;-66
2023/12/02 02:33:58;;;;;;;20.65;10.27;;;;;;;-7.44;96.96;99778.38;10438088;28;20037;-66
2023/12/02 02:39:01;;;;;;;21.25;9.82;;;;;;;-7.45;97.24;99782.06;10444464;28;20052;-65
2023/12/02 02:44:03;;;;;;;23.45;10.18;;;;;;;-7.41;97.15;99788.66;10431632;28;20053;-66
2023/12/02 02:49:06;;;;;;;25.33;10.10;;;;;;;-7.37;97.42;99782.75;10440091;28;20527;-66
2023/12/02 02:54:08;;;;;;;27.85;11.02;;;;;;;-7.33;97.43;99783.22;10442902;28;20046;-65
2023/12/02 02:59:12;;;;;;;24.23;11.15;;;;;;;-7.25;97.76;99790.28;10409494;28;20052;-66
2023/12/02 03:04:14;;;;;;;27.33;11.13;;;;;;;-7.24;97.47;99791.94;10430846;28;20041;-65
2023/12/02 03:09:17;;;;;;;21.40;10.13;;;;;;;-7.22;98.14;99788.06;10438237;28;20041;-66
2023/12/02 03:14:19;;;;;;;29.05;12.88;;;;;;;-7.12;98.29;99796.56;10431108;28;20046;-66
2023/12/02 03:19:21;;;;;;;24.35;11.15;;;;;;;-7.10;98.04;99799.09;10438792;28;20041;-66
2023/12/02 03:24:23;;;;;;;28.00;11.80;;;;;;;-6.91;97.80;99800.31;10428864;28;20045;-66
2023/12/02 03:29:25;;;;;;;25.27;10.90;;;;;;;-6.82;98.30;99797.31;10441205;28;20052;-65
2023/12/02 03:34:28;;;;;;;23.98;11.25;;;;;;;-6.80;98.13;99797.97;10430752;28;20045;-66
2023/12/02 03:39:30;;;;;;;27.38;11.27;;;;;;;-6.67;97.08;99802.59;10433698;28;20044;-66
2023/12/02 03:44:32;;;;;;;24.75;11.65;;;;;;;-6.59;96.77;99810.50;10432803;28;20041;-66
2023/12/02 03:49:34;;;;;;;29.40;11.30;;;;;;;-6.63;96.69;99811.88;10435636;28;20042;-68
2023/12/02 03:54:37;;;;;;;23.50;10.68;;;;;;;-6.55;96.68;99817.09;10446864;28;20041;-67
2023/12/02 03:59:40;;;;;;;22.10;10.55;;;;;;;-6.63;96.09;99822.53;10441065;28;20040;-67
2023/12/02 04:04:42;;;;;;;27.20;11.93;;;;;;;-6.68;95.50;99816.97;10435261;28;20045;-67
2023/12/02 04:09:45;;;;;;;32.17;12.77;;;;;;;-6.80;95.13;99821.97;10438740;28;20452;-67
2023/12/02 04:14:47;;;;;;;28.35;11.77;;;;;;;-6.70;94.87;99821.66;10446990;28;20044;-68
2023/12/02 04:19:50;;;;;;;31.40;12.30;;;;;;;-6.62;94.58;99821.53;10432392;28;20037;-65
2023/12/02 04:24:52;;;;;;;34.25;12.55;;;;;;;-6.80;94.54;99837.97;10437131;28;20037;-65
2023/12/02 04:29:54;;;;;;;29.77;12.88;;;;;;;-6.82;94.20;99839.19;10427026;28;20041;-66
2023/12/02 04:34:56;;;;;;;37.72;13.55;;;;;;;-6.81;93.96;99846.16;10438488;28;20044;-65
2023/12/02 04:39:59;;;;;;;31.15;12.88;;;;;;;-6.81;94.14;99846.16;10433648;28;20034;-66
2023/12/02 04:45:01;;;;;;;31.55;13.38;;;;;;;-6.82;94.22;99856.00;10437622;28;20057;-66
2023/12/02 04:50:04;;;;;;;32.03;12.35;;;;;;;-6.78;94.08;99851.13;10437762;28;20045;-66
2023/12/02 04:55:07;;;;;;;38.17;15.10;;;;;;;-7.03;93.86;99854.13;10436769;28;20045;-65
2023/12/02 05:00:14;;;;;;;41.10;14.50;;;;;;;-7.00;94.79;99852.91;10433663;28;20422;-66
2023/12/02 05:05:16;;;;;;;36.88;14.45;;;;;;;-7.11;95.44;99861.41;10445474;28;20044;-66
2023/12/02 05:10:19;;;;;;;34.53;13.80;;;;;;;-7.01;95.52;99854.75;10445079;28;20812;-66
2023/12/02 05:15:21;;;;;;;35.45;13.32;;;;;;;-6.86;95.46;99859.25;10445270;28;20516;-66
2023/12/02 05:20:23;;;;;;;34.08;13.68;;;;;;;-6.81;95.60;99862.16;10441032;28;20040;-66
2023/12/02 05:25:26;;;;;;;39.67;14.43;;;;;;;-6.92;95.23;99870.66;10446360;28;20037;-67
2023/12/02 05:30:28;;;;;;;38.83;14.18;;;;;;;-6.88;95.07;99874.59;10443134;28;20037;-66
2023/12/02 05:35:31;;;;;;;40.17;15.35;;;;;;;-6.81;95.06;99883.50;10444913;28;20052;-67
2023/12/02 05:40:33;;;;;;;34.33;13.73;;;;;;;-6.80;95.20;99888.66;10443543;28;20041;-66
2023/12/02 05:45:36;;;;;;;35.95;14.20;;;;;;;-6.79;95.14;99900.97;10440566;28;20037;-66
2023/12/02 05:50:38;;;;;;;36.20;13.52;;;;;;;-6.73;94.85;99896.75;10445588;28;20041;-65
2023/12/02 05:55:40;;;;;;;33.15;13.60;;;;;;;-6.64;94.76;99913.44;10443551;28;20033;-67
2023/12/02 06:00:44;;;;;;;41.42;15.25;;;;;;;-6.70;94.36;99909.69;10440253;28;20038;-67
2023/12/02 06:05:46;;;;;;;34.22;13.55;;;;;;;-6.73;94.30;99920.75;10443639;28;20032;-67
2023/12/02 06:10:48;;;;;;;34.47;14.35;;;;;;;-6.63;93.85;99921.25;10442874;28;20049;-67
2023/12/02 06:15:51;;;;;;;35.20;14.40;;;;;;;-6.66;93.94;99926.16;10444456;28;20037;-66
2023/12/02 06:20:53;;;;;;;37.45;14.98;;;;;;;-6.63;93.32;99931.94;10442996;28;20048;-67
2023/12/02 06:25:55;;;;;;;38.88;15.88;;;;;;;-6.51;92.99;99938.44;10452205;28;20033;-66
2023/12/02 06:30:58;;;;;;;36.13;14.98;;;;;;;-6.43;93.21;99943.66;10438584;28;20037;-66
2023/12/02 06:36:00;;;;;;;33.95;14.85;;;;;;;-6.47;93.38;99947.72;10434743;28;20531;-65
2023/12/02 06:41:03;;;;;;;33.17;13.68;;;;;;;-6.46;93.27;99946.72;10432469;28;20053;-66
2023/12/02 06:46:06;;;;;;;33.03;14.05;;;;;;;-6.46;93.23;99959.22;10446260;28;20488;-65
2023/12/02 06:51:08;;;;;;;33.35;14.68;;;;;;;-6.52;93.11;99960.81;10441678;28;20048;-67
2023/12/02 06:56:21;;;;;;;32.60;13.68;;;;;;;-6.51;93.47;99966.97;10444301;28;20037;-67
2023/12/02 07:01:31;;;;;;;32.53;14.30;;;;;;;-6.46;93.35;99965.41;10443027;28;20049;-67
2023/12/02 07:06:33;;;;;;;37.30;15.88;;;;;;;-6.41;93.40;99972.88;10442993;28;20041;-67
2023/12/02 07:11:36;;;;;;;34.30;15.45;;;;;;;-6.39;93.35;99982.34;10444689;28;20517;-66
2023/12/02 07:16:38;;;;;;;33.92;15.50;;;;;;;-6.39;93.35;99982.34;10449489;28;20044;-66
2023/12/02 07:21:41;;;;;;;31.48;12.50;;;;;;;-6.30;92.52;99990.22;10462675;28;20528;-66
2023/12/02 07:26:43;;;;;;;35.67;15.20;;;;;;;-6.40;92.54;100002.03;10445099;28;20452;-66
2023/12/02 07:31:45;;;;;;;29.73;13.52;;;;;;;-6.33;92.76;100001.28;10411246;28;20041;-66
2023/12/02 07:36:49;;;;;;;32.67;14.30;;;;;;;-6.26;92.29;100012.84;10458854;28;20041;-69
2023/12/02 07:41:51;;;;;;;29.58;14.00;;;;;;;-6.17;92.39;100015.22;10435863;28;20099;-67
2023/12/02 07:46:54;;;;;;;39.50;15.55;;;;;;;-6.19;92.12;100040.47;10430725;28;20531;-66
2023/12/02 07:51:56;;;;;;;44.42;17.08;;;;;;;-6.08;92.13;100038.13;10441699;28;20068;-65
2023/12/02 07:56:59;;;;;;;40.35;14.50;;;;;;;-6.06;91.40;100045.97;10442032;28;20044;-66
2023/12/02 08:02:02;;;;;;;54.65;16.90;;;;;;;-6.09;90.73;100055.16;10435603;28;20064;-66
2023/12/02 08:07:04;;;;;;;54.10;19.88;;;;;;;-6.06;90.52;100056.66;10441810;28;20044;-66
2023/12/02 08:12:06;;;;;;;46.85;19.15;;;;;;;-6.07;91.06;100055.00;10483254;28;20060;-66
2023/12/02 08:17:09;;;;;;;35.85;15.02;;;;;;;-5.83;90.57;100070.66;10457715;28;20421;-66
2023/12/02 08:22:12;;;;;;;41.03;16.67;;;;;;;-5.74;89.97;100068.66;10440261;28;20120;-67
2023/12/02 08:27:14;;;;;;;32.85;13.88;;;;;;;-5.79;88.77;100065.75;10442223;28;20421;-66
2023/12/02 08:32:17;;;;;;;36.15;15.50;;;;;;;-5.79;89.16;100068.41;10437440;28;20048;-65
2023/12/02 08:37:19;;;;;;;30.77;14.52;;;;;;;-5.77;88.99;100093.09;10432534;28;21494;-66
2023/12/02 08:42:21;;;;;;;32.13;14.35;;;;;;;-5.72;88.38;100090.72;10458453;28;20058;-65
2023/12/02 08:47:24;;;;;;;29.25;10.80;;;;;;;-5.71;87.96;100096.88;10444487;28;20033;-66
2023/12/02 08:52:28;;;;;;;34.03;13.75;;;;;;;-5.80;87.71;100106.84;10442359;28;20049;-65
2023/12/02 08:57:30;;;;;;;36.47;15.80;;;;;;;-5.59;87.99;100109.53;10448062;28;20041;-65
2023/12/02 09:02:34;;;;;;;47.30;21.13;;;;;;;-5.59;88.37;100114.06;10447178;28;20563;-65
2023/12/02 09:07:36;;;;;;;40.75;18.92;;;;;;;-5.52;88.88;100115.78;10423612;28;20041;-66
2023/12/02 09:12:39;;;;;;;38.35;19.27;;;;;;;-5.46;88.48;100133.75;10448130;28;20041;-65
2023/12/02 09:18:07;;;;;;;51.22;21.55;;;;;;;-5.47;87.70;100131.25;10450612;28;20042;-66
2023/12/02 09:23:10;;;;;;;38.92;17.65;;;;;;;-5.47;88.29;100128.59;10444743;28;20041;-66
2023/12/02 09:28:29;;;;;;;37.40;16.55;;;;;;;-5.37;87.20;100131.78;10447479;28;20038;-67
2023/12/02 09:33:32;;;;;;;49.50;21.65;;;;;;;-5.42;87.38;100130.69;10436741;28;20041;-66
2023/12/02 09:38:34;;;;;;;45.13;19.35;;;;;;;-5.48;87.82;100118.91;10437342;28;20040;-65
2023/12/02 09:43:37;;;;;;;35.13;17.42;;;;;;;-5.49;87.04;100134.13;10443480;28;20099;-65
2023/12/02 09:49:10;;;;;;;44.00;21.83;;;;;;;-5.53;87.79;100129.34;10437903;28;20029;-67
2023/12/02 09:54:40;;;;;;;44.75;21.80;;;;;;;-5.52;87.84;100133.69;10444449;28;20044;-66
2023/12/02 09:59:58;;;;;;;46.80;20.85;;;;;;;-5.63;87.96;100136.84;10443555;28;20029;-65
2023/12/02 10:05:10;;;;;;;36.63;16.93;;;;;;;-5.66;87.67;100150.56;10440837;28;20037;-66
2023/12/02 10:10:17;;;;;;;30.15;15.13;;;;;;;-5.60;87.21;100147.16;10441683;28;20044;-65
2023/12/02 10:15:21;;;;;;;33.08;16.20;;;;;;;-5.67;87.29;100152.44;10441653;28;20034;-68
2023/12/02 10:20:26;;;;;;;33.17;17.10;;;;;;;-5.57;88.18;100157.44;10470306;28;20048;-68
2023/12/02 10:25:34;;;;;;;29.17;14.15;;;;;;;-5.49;87.80;100152.84;10448526;28;20044;-65
2023/12/02 10:30:49;;;;;;;25.10;12.35;;;;;;;-5.49;86.75;100160.03;10439808;28;20837;-66
2023/12/02 10:35:56;;;;;;;26.73;12.38;;;;;;;-5.43;86.70;100164.59;10444253;28;20163;-62
2023/12/02 10:41:15;;;;;;;27.38;12.45;;;;;;;-5.49;86.36;100173.38;10444837;28;20064;-63
2023/12/02 10:46:21;;;;;;;23.27;11.93;;;;;;;-5.45;87.44;100182.69;10449888;28;20026;-64
2023/12/02 10:51:26;;;;;;;21.83;11.55;;;;;;;-5.37;87.31;100187.09;10472164;28;20123;-68
2023/12/02 10:56:32;;;;;;;21.92;11.27;;;;;;;-5.44;87.13;100195.03;10418385;28;20053;-67
2023/12/02 11:01:44;;;;;;;23.33;11.20;;;;;;;-5.52;86.90;100193.31;10451521;28;20040;-67
2023/12/02 11:06:53;;;;;;;20.67;10.43;;;;;;;-5.52;87.43;100203.19;10478383;28;20056;-65
2023/12/02 11:12:04;;;;;;;18.45;10.60;;;;;;;-5.51;87.26;100204.84;10443785;28;20056;-65
2023/12/02 11:17:30;;;;;;;21.73;10.27;;;;;;;-5.44;87.41;100216.41;10431764;28;20045;-62
2023/12/02 11:23:03;;;;;;;22.40;10.75;;;;;;;-5.46;87.15;100221.13;10434336;28;20386;-61
2023/12/02 11:28:32;;;;;;;16.95;9.65;;;;;;;-5.53;87.07;100223.75;10439255;28;20045;-62
2023/12/02 11:33:42;;;;;;;17.55;9.38;;;;;;;-5.61;87.36;100225.66;10445882;28;20045;-61
2023/12/02 11:39:00;;;;;;;17.80;9.45;;;;;;;-5.52;87.79;100227.25;10444679;28;20049;-62
2023/12/02 11:44:16;;;;;;;17.25;9.73;;;;;;;-5.50;87.66;100220.69;10427236;28;20056;-62
2023/12/02 11:49:48;;;;;;;15.40;8.00;;;;;;;-5.45;87.11;100238.81;10433845;28;20040;-63
2023/12/02 11:54:59;;;;;;;17.65;8.95;;;;;;;-5.53;87.68;100242.44;10470692;28;20057;-62
2023/12/02 12:00:44;;;;;;;14.75;7.53;;;;;;;-5.51;87.01;100239.59;10443766;28;20040;-63
2023/12/02 12:06:02;;;;;;;14.38;7.18;;;;;;;-5.45;86.73;100246.84;10424473;28;20053;-63
2023/12/02 12:11:06;;;;;;;11.90;7.20;;;;;;;-5.52;86.23;100246.78;10441477;28;20037;-63
2023/12/02 12:16:08;;;;;;;12.88;7.68;;;;;;;-4.67;87.84;100251.41;10435279;28;20408;-64
2023/12/02 12:21:11;;;;;;;16.90;8.25;;;;;;;-5.34;85.80;100259.75;10433322;28;20044;-64
2023/12/02 12:26:14;;;;;;;14.60;8.80;;;;;;;-5.38;86.58;100261.16;10437046;28;20040;-62
2023/12/02 12:31:17;;;;;;;16.45;9.88;;;;;;;-5.48;86.96;100269.44;10439128;28;20048;-63
2023/12/02 12:36:29;;;;;;;14.20;8.15;;;;;;;-5.53;87.62;100277.19;10427507;28;20037;-63
2023/12/02 12:41:31;;;;;;;16.85;9.23;;;;;;;-5.62;87.48;100289.00;10432705;28;20054;-64
2023/12/02 12:46:36;;;;;;;15.40;8.90;;;;;;;-5.61;88.09;100292.50;10439677;28;20041;-64
2023/12/02 12:51:40;;;;;;;15.63;8.65;;;;;;;-5.64;88.11;100300.88;10438200;28;20376;-64
2023/12/02 12:56:51;;;;;;;13.88;7.65;;;;;;;-5.63;87.72;100299.88;10423794;28;20056;-64
2023/12/02 13:02:32;;;;;;;13.57;8.15;;;;;;;-5.71;87.54;100308.00;10433634;28;20037;-64
2023/12/02 13:07:49;;;;;;;13.43;7.47;;;;;;;-5.65;87.27;100304.56;10431510;28;20124;-65
2023/12/02 13:12:55;;;;;;;15.17;8.30;;;;;;;-5.77;86.98;100302.34;10441425;28;20034;-63
2023/12/02 13:17:59;;;;;;;16.20;9.20;;;;;;;-5.81;87.92;100317.09;10435793;28;20037;-64
2023/12/02 13:23:05;;;;;;;18.77;10.73;;;;;;;-5.74;88.29;100313.69;10436855;28;20413;-65
2023/12/02 13:28:26;;;;;;;23.83;12.75;;;;;;;-5.60;89.08;100328.91;10448961;28;20037;-64
2023/12/02 13:33:56;;;;;;;16.92;9.43;;;;;;;-5.60;89.09;100328.91;10445532;28;20065;-65
2023/12/02 13:39:21;;;;;;;14.80;9.52;;;;;;;-5.73;87.76;100332.19;10425152;28;20061;-64
2023/12/02 13:44:27;;;;;;;16.30;10.07;;;;;;;-5.56;87.92;100339.03;10451425;28;20041;-64
2023/12/02 13:49:44;;;;;;;16.35;8.15;;;;;;;-5.55;87.55;100338.03;10429220;28;20038;-64
2023/12/02 13:55:05;;;;;;;12.48;8.20;;;;;;;-5.54;86.85;100339.69;10445645;28;20048;-64
2023/12/02 14:00:11;;;;;;;13.00;8.13;;;;;;;-5.50;86.89;100356.19;10446929;28;20038;-63
2023/12/02 14:05:27;;;;;;;12.82;8.45;;;;;;;-5.70;86.69;100353.22;10435876;28;20041;-64
2023/12/02 14:10:29;;;;;;;13.77;7.68;;;;;;;-5.60;87.42;100355.63;10445282;28;20041;-63
2023/12/02 14:15:57;;;;;;;13.95;8.13;;;;;;;-5.40;87.70;100351.38;10445463;28;20045;-64
2023/12/02 14:21:17;;;;;;;14.52;8.25;;;;;;;-5.43;87.33;100359.78;10436728;28;20049;-66
2023/12/02 14:26:51;;;;;;;13.43;7.80;;;;;;;-5.41;87.39;100372.97;10431435;28;20030;-65
2023/12/02 14:32:29;;;;;;;11.98;7.25;;;;;;;-5.46;87.52;100366.31;10443162;28;20033;-63
2023/12/02 14:37:38;;;;;;;12.75;7.65;;;;;;;-5.44;87.60;100365.31;10435441;28;20497;-63
2023/12/02 14:43:24;;;;;;;10.30;6.75;;;;;;;-5.30;87.72;100365.31;10444984;28;20076;-63
2023/12/02 14:48:27;;;;;;;10.50;7.25;;;;;;;-5.47;87.62;100377.22;10438451;28;20048;-63
2023/12/02 14:53:36;;;;;;;14.02;8.23;;;;;;;-5.48;87.49;100380.91;10432256;28;20521;-63
2023/12/02 14:58:41;;;;;;;15.15;9.75;;;;;;;-5.48;87.97;100381.72;10437530;28;20046;-63
2023/12/02 15:03:45;;;;;;;14.45;9.15;;;;;;;-5.50;87.91;100393.63;10440180;28;20811;-63
2023/12/02 15:08:50;;;;;;;14.38;8.20;;;;;;;-5.48;88.35;100384.41;10439454;28;20041;-63
2023/12/02 15:13:52;;;;;;;15.05;8.82;;;;;;;-5.55;88.32;100396.03;10431973;28;20108;-62
2023/12/02 15:18:55;;;;;;;13.55;9.02;;;;;;;-5.49;89.03;100390.75;10411102;28;20056;-64
2023/12/02 15:23:57;;;;;;;16.50;9.40;;;;;;;-5.49;89.01;100396.09;10435346;28;20048;-67
2023/12/02 15:29:02;;;;;;;16.05;10.32;;;;;;;-5.37;88.61;100403.69;10440585;28;20424;-66
2023/12/02 15:34:05;;;;;;;15.02;9.55;;;;;;;-5.29;88.24;100412.44;10440247;28;20044;-66
2023/12/02 15:39:12;;;;;;;14.88;9.40;;;;;;;-5.23;87.83;100422.38;10430948;28;20037;-62
2023/12/02 15:44:16;;;;;;;15.82;9.68;;;;;;;-5.41;87.89;100418.41;10438400;28;20464;-63
2023/12/02 15:49:25;;;;;;;17.73;11.07;;;;;;;-5.30;88.08;100415.28;10438698;28;20037;-65
2023/12/02 15:54:28;;;;;;;23.95;13.40;;;;;;;-5.36;87.71;100424.88;10434711;28;20037;-64
2023/12/02 15:59:31;;;;;;;22.65;13.02;;;;;;;-5.32;88.27;100431.53;10434320;28;20050;-62
2023/12/02 16:04:36;;;;;;;21.00;11.68;;;;;;;-5.39;87.45;100433.25;10433776;28;20041;-64
2023/12/02 16:09:45;;;;;;;17.20;10.20;;;;;;;-5.42;87.97;100430.13;10428547;28;20034;-64
2023/12/02 16:14:48;;;;;;;13.40;9.13;;;;;;;-5.36;87.21;100422.22;10432452;28;20034;-63
2023/12/02 16:19:52;;;;;;;12.05;7.93;;;;;;;-5.36;87.35;100430.25;10436792;28;20048;-62
2023/12/02 16:24:55;;;;;;;12.77;8.35;;;;;;;-5.36;87.77;100437.44;10437629;28;20083;-64
2023/12/02 16:29:57;;;;;;;13.75;8.43;;;;;;;-5.39;87.60;100437.78;10434157;28;20033;-62
2023/12/02 16:35:00;;;;;;;10.48;6.70;;;;;;;-5.28;86.65;100432.81;10434265;28;20040;-62
2023/12/02 16:40:06;;;;;;;10.52;6.47;;;;;;;-5.31;86.56;100430.50;10430189;28;20112;-62
2023/12/02 16:45:15;;;;;;;8.52;5.93;;;;;;;-5.31;86.39;100435.03;10436301;28;20045;-62
2023/12/02 16:50:30;;;;;;;7.70;5.43;;;;;;;-5.42;86.51;100444.31;10446539;28;20030;-62
2023/12/02 16:55:35;;;;;;;12.85;7.10;;;;;;;-5.56;86.97;100447.78;10435327;28;20429;-62
2023/12/02 17:00:42;;;;;;;16.98;10.05;;;;;;;-5.48;87.87;100453.06;10440775;28;20033;-63
2023/12/02 17:06:00;;;;;;;16.60;10.07;;;;;;;-5.62;88.74;100460.03;10433386;28;20048;-62
2023/12/02 17:11:04;;;;;;;14.38;9.40;;;;;;;-5.65;88.94;100475.63;10443390;28;20128;-62
2023/12/02 17:16:29;;;;;;;13.07;6.40;;;;;;;-5.70;89.00;100476.16;10442036;28;20049;-64
2023/12/02 17:21:31;;;;;;;13.98;7.85;;;;;;;-5.79;88.61;100485.25;10439122;28;20041;-67
2023/12/02 17:26:34;;;;;;;14.95;6.90;;;;;;;-5.74;88.78;100484.69;10432634;28;20037;-65
2023/12/02 17:31:36;;;;;;;12.07;7.15;;;;;;;-5.89;89.03;100492.69;10440133;28;20041;-64
2023/12/02 17:36:39;;;;;;;14.30;6.53;;;;;;;-5.82;88.84;100502.47;10441573;28;20449;-64
2023/12/02 17:41:48;;;;;;;16.88;7.70;;;;;;;-5.82;88.82;100507.81;10433110;28;20056;-64
2023/12/02 17:46:53;;;;;;;18.50;10.27;;;;;;;-5.72;88.55;100504.91;10440496;28;20033;-62
2023/12/02 17:51:56;;;;;;;18.77;10.05;;;;;;;-5.88;88.49;100513.06;10445627;28;20037;-62
2023/12/02 17:57:01;;;;;;;16.98;10.20;;;;;;;-6.00;88.81;100512.66;10443940;28;20045;-63
2023/12/02 18:02:04;;;;;;;20.50;11.65;;;;;;;-5.88;89.57;100510.38;10436188;28;20041;-62
2023/12/02 18:07:07;;;;;;;19.80;11.32;;;;;;;-5.76;89.63;100509.75;10427811;28;20037;-62
2023/12/02 18:12:10;;;;;;;22.60;12.75;;;;;;;-5.88;89.26;100508.53;10428258;28;20037;-62
2023/12/02 18:17:14;;;;;;;19.95;11.57;;;;;;;-5.83;89.71;100513.34;10443452;28;20144;-62
2023/12/02 18:22:18;;;;;;;21.30;11.55;;;;;;;-6.03;89.59;100520.19;10443946;28;20041;-63
2023/12/02 18:27:21;;;;;;;22.70;11.82;;;;;;;-5.95;89.94;100510.28;10415831;28;20609;-63
2023/12/02 18:32:24;;;;;;;24.50;13.02;;;;;;;-5.94;89.85;100517.28;10404976;28;20045;-63
2023/12/02 18:37:26;;;;;;;23.98;12.32;;;;;;;-5.97;89.80;100517.63;10434249;28;20037;-63
2023/12/02 18:42:29;;;;;;;24.98;12.38;;;;;;;-6.02;89.74;100522.69;10441225;28;20048;-63
2023/12/02 18:47:31;;;;;;;29.67;13.48;;;;;;;-6.09;89.79;100522.53;10437119;28;20041;-62
2023/12/02 18:52:34;;;;;;;23.73;12.50;;;;;;;-5.97;89.92;100520.31;10444186;28;20033;-63
2023/12/02 18:57:38;;;;;;;26.40;13.80;;;;;;;-5.92;90.09;100528.59;10441717;28;20037;-63
2023/12/02 19:02:40;;;;;;;24.98;12.95;;;;;;;-6.04;89.42;100537.22;10439073;28;20054;-63
2023/12/02 19:07:42;;;;;;;27.17;12.75;;;;;;;-6.03;90.25;100531.69;10442388;28;20520;-63
2023/12/02 19:12:45;;;;;;;27.42;13.90;;;;;;;-6.08;90.02;100539.38;10450945;28;20037;-63
2023/12/02 19:17:47;;;;;;;28.60;14.50;;;;;;;-6.04;90.41;100530.03;10437793;28;20440;-62
2023/12/02 19:22:50;;;;;;;28.80;13.68;;;;;;;-6.20;90.43;100547.00;10433046;28;20394;-64
2023/12/02 19:27:52;;;;;;;29.95;13.02;;;;;;;-6.06;90.81;100540.06;10438202;28;20044;-63
2023/12/02 19:32:54;;;;;;;27.40;13.85;;;;;;;-6.04;90.60;100554.09;10433573;28;20037;-63
2023/12/02 19:38:01;;;;;;;25.00;12.98;;;;;;;-6.00;90.46;100560.72;10432640;28;20038;-63
2023/12/02 19:43:06;;;;;;;29.45;13.50;;;;;;;-5.97;90.33;100563.03;10435185;28;20053;-62
2023/12/02 19:48:08;;;;;;;26.02;12.77;;;;;;;-5.89;90.03;100560.31;10436836;28;20041;-62
2023/12/02 19:53:12;;;;;;;27.20;13.32;;;;;;;-5.87;89.77;100563.63;10438572;28;20041;-61
2023/12/02 19:58:16;;;;;;;26.92;12.88;;;;;;;-5.89;89.96;100575.50;10439534;28;20037;-63
2023/12/02 20:03:18;;;;;;;25.77;13.18;;;;;;;-5.98;89.30;100571.25;10433510;28;20049;-63
2023/12/02 20:08:21;;;;;;;23.98;12.82;;;;;;;-5.95;90.00;100577.06;10435656;28;20033;-64
2023/12/02 20:13:23;;;;;;;28.95;14.68;;;;;;;-6.06;90.08;100569.44;10426843;28;20044;-64
2023/12/02 20:18:25;;;;;;;28.98;13.95;;;;;;;-5.93;90.04;100590.22;10441473;28;20039;-62
2023/12/02 20:23:28;;;;;;;26.05;13.27;;;;;;;-5.87;89.73;100585.00;10437552;28;20049;-62
2023/12/02 20:28:30;;;;;;;29.92;15.35;;;;;;;-5.90;89.41;100589.88;10438200;28;20052;-63
2023/12/02 20:33:33;;;;;;;27.48;13.75;;;;;;;-5.98;89.42;100604.13;10433289;28;20808;-63
2023/12/02 20:38:35;;;;;;;29.02;14.45;;;;;;;-5.97;90.02;100600.44;10436286;28;20124;-62
2023/12/02 20:43:38;;;;;;;26.42;13.85;;;;;;;-6.01;89.45;100617.84;10439458;28;20057;-62
2023/12/02 20:48:43;;;;;;;27.38;12.02;;;;;;;-5.95;89.82;100619.78;10436878;28;20461;-62
2023/12/02 20:53:46;;;;;;;26.58;11.82;;;;;;;-5.90;89.65;100632.63;10437293;28;20041;-62
2023/12/02 20:58:49;;;;;;;24.05;12.00;;;;;;;-5.87;89.11;100629.59;10406183;28;20501;-62
2023/12/02 21:03:52;;;;;;;21.45;13.48;;;;;;;-5.88;88.85;100639.44;10426534;28;20045;-63
2023/12/02 21:08:56;;;;;;;21.48;11.25;;;;;;;-5.89;89.80;100647.66;10433926;28;20048;-61
2023/12/02 21:13:58;;;;;;;26.23;12.95;;;;;;;-5.93;88.79;100649.84;10437152;28;20045;-62
2023/12/02 21:19:03;;;;;;;32.00;14.70;;;;;;;-5.84;88.88;100655.97;10433571;28;20454;-62
2023/12/02 21:24:07;;;;;;;33.08;16.27;;;;;;;-5.86;88.43;100666.81;10440874;28;20068;-63
2023/12/02 21:29:11;;;;;;;30.08;13.95;;;;;;;-5.93;88.66;100663.19;10435085;28;20610;-62
2023/12/02 21:34:16;;;;;;;28.55;15.13;;;;;;;-5.92;89.21;100672.03;10434860;28;20056;-61
2023/12/02 21:39:21;;;;;;;30.42;16.33;;;;;;;-5.91;89.24;100663.03;10434996;28;20029;-62
2023/12/02 21:44:25;;;;;;;27.85;13.90;;;;;;;-5.88;88.49;100676.84;10432483;28;20052;-61
2023/12/02 21:49:28;;;;;;;25.33;14.15;;;;;;;-5.72;88.61;100673.28;10429956;28;20036;-61
2023/12/02 21:54:35;;;;;;;24.35;10.73;;;;;;;-5.65;88.63;100676.06;10436158;28;20045;-62
2023/12/02 21:59:40;;;;;;;22.00;10.27;;;;;;;-5.75;87.96;100670.94;10431765;28;20228;-62
2023/12/02 22:04:43;;;;;;;23.08;10.38;;;;;;;-5.70;88.29;100681.13;10445385;28;20049;-61
2023/12/02 22:09:46;;;;;;;20.88;11.65;;;;;;;-5.65;88.79;100684.09;10443120;28;20421;-63
2023/12/02 22:14:50;;;;;;;27.48;12.75;;;;;;;-5.70;88.19;100675.78;10440158;28;20409;-62
2023/12/02 22:19:53;;;;;;;26.65;12.80;;;;;;;-5.62;87.89;100679.22;10440508;28;20033;-62
2023/12/02 22:24:55;;;;;;;23.63;11.55;;;;;;;-5.70;88.15;100673.94;10442719;28;20041;-62
2023/12/02 22:29:58;;;;;;;28.77;12.25;;;;;;;-5.71;88.35;100671.44;10443551;28;20497;-63
2023/12/02 22:35:02;;;;;;;26.52;14.05;;;;;;;-5.81;88.50;100663.63;10455621;28;20044;-62
2023/12/02 22:40:06;;;;;;;29.10;14.75;;;;;;;-6.06;88.84;100670.94;10445792;28;20451;-62
2023/12/02 22:45:22;;;;;;;35.65;15.73;;;;;;;-6.17;89.61;100673.97;10437028;28;20068;-61
2023/12/02 22:50:25;;;;;;;35.75;15.65;;;;;;;-6.34;89.98;100661.69;10440546;28;20038;-63
2023/12/02 22:55:55;;;;;;;32.65;14.20;;;;;;;-6.56;90.62;100677.41;10440324;28;20033;-63
2023/12/02 23:00:57;;;;;;;31.00;15.35;;;;;;;-6.54;90.59;100671.91;10438993;28;20042;-63
2023/12/02 23:06:00;;;;;;;32.20;14.23;;;;;;;-6.64;91.07;100676.59;10442538;28;20037;-63